Flag for Italy

Past Weather in 41°08'12.9"N, 16°52'02.9"E, Italy — Yesterday and Last 2 Weeks

Currently: 41 °F. Clear. (Weather station: Bari / Palese Macchie, Italy). See more current weather

Past Weather in 41°08'12.9"N, 16°52'02.9"E — Graph

°F

41°08'12.9"N, 16°52'02.9"E Temperature Yesterday

Maximum temperature yesterday: 50 °F (at 1:20 pm)
Minimum temperature yesterday: 39 °F (at 4:50 am)
Average temperature yesterday: 45 °F

High & Low Weather Summary for the Past Weeks

 TemperatureHumidityPressure
High64 °F (Jan 18, 11:50 am)100% (Jan 14, 3:50 am)30.30 "Hg (Jan 14, 3:50 am)
Low34 °F (Jan 24, 5:20 am)40% (Jan 18, 12:50 pm)29.33 "Hg (Jan 21, 1:50 am)
Average48 °F79%29.82 "Hg
* Reported Jan 14 3:20 am — Jan 29 3:20 am, 41°08'12.9"N, 16°52'02.9"E. Weather by CustomWeather, © 2023

Note: Actual official high and low records may vary slightly from our data, if they occured in-between our weather recording intervals... More about our weather records

41°08'12.9"N, 16°52'02.9"E Weather History for the Previous 24 Hours

Scroll right to see more
 ConditionsComfort  
Time TempWeatherWind HumidityBarometerVisibility
3:20 am
Sun, Jan 29
41 °FClear.8 mph87%30.07 "Hg10 mi
2:50 am41 °FClear.7 mph87%30.07 "Hg10 mi
2:20 am43 °FClear.8 mph81%30.07 "Hg10 mi
1:50 am41 °FClear.7 mph93%30.07 "Hg10 mi
12:20 am43 °FClear.6 mph81%30.07 "Hg10 mi
11:50 pm
Sat, Jan 28
43 °FClear.8 mph81%30.04 "Hg10 mi
11:20 pm43 °FClear.7 mph87%30.04 "Hg10 mi
10:50 pm43 °FClear.8 mph87%30.04 "Hg10 mi
10:20 pm43 °FClear.7 mph87%30.04 "Hg10 mi
9:50 pm43 °FClear.8 mph87%30.04 "Hg10 mi
9:20 pm43 °FClear.7 mph87%30.04 "Hg10 mi
7:50 pm48 °FPassing clouds.8 mph62%30.01 "HgN/A
7:20 pm48 °FPassing clouds.7 mph66%30.01 "HgN/A
6:50 pm50 °FPassing clouds.7 mph62%30.01 "HgN/A
6:20 pm50 °FPassing clouds.6 mph67%29.98 "HgN/A
5:50 pm48 °FPassing clouds.3 mph66%29.98 "HgN/A
5:20 pm48 °FPassing clouds.5 mph66%29.98 "HgN/A
4:50 pm48 °FScattered clouds.3 mph76%29.98 "HgN/A
4:20 pm48 °FScattered clouds.3 mph82%29.98 "HgN/A
3:20 pm48 °FScattered clouds.5 mph76%29.95 "HgN/A
2:50 pm50 °FScattered clouds.6 mph76%29.95 "HgN/A
2:20 pm50 °FPassing clouds.6 mph76%29.95 "HgN/A
1:50 pm50 °FPassing clouds.8 mph76%29.92 "HgN/A
1:20 pm50 °FPassing clouds.8 mph71%29.95 "HgN/A
12:50 pm48 °FPassing clouds.9 mph76%29.95 "HgN/A
12:20 pm48 °FPassing clouds.8 mph76%29.95 "HgN/A
11:50 am48 °FScattered clouds.8 mph76%29.95 "HgN/A
11:20 am48 °FScattered clouds.7 mph76%29.95 "Hg6 mi
10:50 am48 °FScattered clouds.5 mph76%29.95 "HgN/A
10:20 am46 °FScattered clouds.2 mph76%29.95 "HgN/A
9:50 am46 °FScattered clouds.2 mph76%29.95 "HgN/A
9:20 am45 °FScattered clouds.6 mph81%29.92 "HgN/A
8:20 am39 °FPassing clouds.9 mph87%29.92 "HgN/A
7:50 am39 °FSunny.10 mph87%29.89 "Hg10 mi
7:20 am39 °FSunny.9 mph87%29.89 "Hg10 mi
6:50 am39 °FPassing clouds.10 mph87%29.89 "HgN/A
6:20 am39 °FPassing clouds.9 mph87%29.89 "HgN/A
5:50 am39 °FPassing clouds.8 mph87%29.86 "HgN/A
5:20 am39 °FChilly.8 mph87%29.86 "HgN/A
4:50 am39 °FChilly.8 mph87%29.86 "HgN/A
4:20 am41 °FPassing clouds.9 mph87%29.86 "HgN/A
Weather by CustomWeather, © 2023

See weather overview